TimeCDT,TemperatureF,Dew PointF,Humidity,Sea Level PressureIn,VisibilityMPH,Wind Direction,Wind SpeedMPH,Gust SpeedMPH,PrecipitationIn,Events,Conditions,WindDirDegrees,DateUTC
12:56 AM,72.0,68.0,87,29.96,5.0,Calm,Calm,-,N/A,,Clear,0,2013-09-08 05:56:00
1:56 AM,72.0,69.1,91,29.94,3.0,Calm,Calm,-,N/A,,Clear,0,2013-09-08 06:56:00
2:56 AM,71.1,68.0,90,29.93,5.0,Calm,Calm,-,0.00,,Clear,0,2013-09-08 07:56:00
3:56 AM,71.1,68.0,90,29.93,3.0,Calm,Calm,-,N/A,,Clear,0,2013-09-08 08:56:00
4:26 AM,71.6,68.0,88,29.97,2.5,Calm,Calm,-,N/A,,Clear,0,2013-09-08 09:26:00
4:35 AM,71.6,68.0,88,29.97,3.0,NNE,3.5,-,N/A,,Clear,20,2013-09-08 09:35:00
4:56 AM,71.1,68.0,90,29.93,3.0,Calm,Calm,-,N/A,,Clear,0,2013-09-08 09:56:00
5:36 AM,69.8,66.2,88,29.98,1.8,Calm,Calm,-,N/A,,Clear,0,2013-09-08 10:36:00
5:56 AM,71.1,68.0,90,29.94,2.5,Calm,Calm,-,N/A,,Clear,0,2013-09-08 10:56:00
6:03 AM,69.8,68.0,94,29.99,3.0,Calm,Calm,-,0.00,,Clear,0,2013-09-08 11:03:00
6:34 AM,69.8,66.2,88,29.99,2.0,Calm,Calm,-,0.00,,Clear,0,2013-09-08 11:34:00
6:41 AM,69.8,66.2,88,29.99,1.8,Calm,Calm,-,0.00,,Clear,0,2013-09-08 11:41:00
6:56 AM,70.0,68.0,93,29.96,1.5,Calm,Calm,-,0.00,,Clear,0,2013-09-08 11:56:00
7:04 AM,71.6,68.0,88,30.00,2.0,Calm,Calm,-,N/A,,Clear,0,2013-09-08 12:04:00
7:19 AM,71.6,69.8,94,30.01,3.0,Calm,Calm,-,0.00,,Clear,0,2013-09-08 12:19:00
7:56 AM,75.0,71.1,87,29.97,6.0,Calm,Calm,-,0.00,,Clear,0,2013-09-08 12:56:00
8:56 AM,81.0,73.0,77,29.97,9.0,Calm,Calm,-,N/A,,Clear,0,2013-09-08 13:56:00
9:56 AM,84.0,71.1,65,29.97,10.0,ENE,3.5,-,0.00,Rain,Light Rain,70,2013-09-08 14:56:00
10:56 AM,87.1,68.0,53,29.96,10.0,Variable,3.5,-,0.00,,Clear,0,2013-09-08 15:56:00
11:56 AM,89.1,68.0,50,29.96,10.0,SE,4.6,-,N/A,,Clear,140,2013-09-08 16:56:00
12:56 PM,91.0,68.0,47,29.95,10.0,Calm,Calm,-,0.00,,Clear,0,2013-09-08 17:56:00
1:56 PM,90.0,66.0,45,29.93,10.0,Variable,4.6,-,N/A,,Scattered Clouds,0,2013-09-08 18:56:00
2:56 PM,91.9,68.0,45,29.91,10.0,Calm,Calm,-,N/A,,Clear,0,2013-09-08 19:56:00
3:56 PM,91.9,66.9,44,29.90,10.0,Calm,Calm,-,N/A,,Scattered Clouds,0,2013-09-08 20:56:00
4:56 PM,89.1,69.1,52,29.90,10.0,South,5.8,-,N/A,,Scattered Clouds,170,2013-09-08 21:56:00
5:56 PM,87.1,69.1,55,29.91,8.0,SW,6.9,-,N/A,,Scattered Clouds,230,2013-09-08 22:56:00
6:56 PM,82.9,69.1,63,29.91,8.0,WSW,4.6,-,N/A,,Partly Cloudy,240,2013-09-08 23:56:00
7:56 PM,81.0,68.0,65,29.92,9.0,WSW,3.5,-,N/A,,Clear,240,2013-09-09 00:56:00
8:56 PM,77.0,69.1,76,29.94,7.0,WSW,4.6,-,N/A,,Clear,250,2013-09-09 01:56:00
9:56 PM,77.0,68.0,74,29.95,10.0,NW,3.5,-,N/A,,Clear,320,2013-09-09 02:56:00
10:56 PM,73.0,69.1,87,29.95,8.0,Calm,Calm,-,N/A,,Clear,0,2013-09-09 03:56:00
11:56 PM,72.0,68.0,87,29.94,9.0,Calm,Calm,-,N/A,,Clear,0,2013-09-09 04:56:00